Time;durP1;ratioP1;P1;durP2;ratioP2;P2;SDS_P1;SDS_P2;PMS_P1;PMS_P2;Temp;Humidity;BMP_temperature;BMP_pressure;BME280_temperature;BME280_humidity;BME280_pressure;Samples;Min_cycle;Max_cycle;Signal;HPM_P1;HPM_P2
2023/12/06 00:01:48;;;;;;;26.13;15.90;;;4.10;99.90;;;;;;4987280;28;20457;-76
2023/12/06 00:04:14;;;;;;;30.87;16.40;;;4.10;99.90;;;;;;4988811;28;20439;-78
2023/12/06 00:06:40;;;;;;;24.63;14.80;;;4.10;99.90;;;;;;4987873;28;20984;-73
2023/12/06 00:09:05;;;;;;;24.60;15.20;;;4.10;99.90;;;;;;4989709;28;20248;-78
2023/12/06 00:11:31;;;;;;;26.57;15.67;;;4.00;99.90;;;;;;4990522;28;20211;-77
2023/12/06 00:13:57;;;;;;;24.63;16.03;;;4.00;99.90;;;;;;4992027;28;20680;-75
2023/12/06 00:16:23;;;;;;;26.97;18.17;;;4.00;99.90;;;;;;4990988;28;20182;-78
2023/12/06 00:18:49;;;;;;;27.97;17.70;;;4.00;99.90;;;;;;4990521;28;20192;-77
2023/12/06 00:21:15;;;;;;;28.90;18.13;;;4.00;99.90;;;;;;4991671;28;20664;-77
2023/12/06 00:23:40;;;;;;;27.53;17.70;;;4.00;99.90;;;;;;4990216;28;20422;-74
2023/12/06 00:26:06;;;;;;;32.00;18.17;;;4.00;99.90;;;;;;4989739;28;20429;-77
2023/12/06 00:28:32;;;;;;;30.70;18.17;;;4.00;99.90;;;;;;4990499;28;20190;-77
2023/12/06 00:30:58;;;;;;;29.23;17.63;;;4.00;99.90;;;;;;4991152;28;20306;-79
2023/12/06 00:33:23;;;;;;;27.37;17.20;;;4.00;99.90;;;;;;4991880;28;20192;-81
2023/12/06 00:35:49;;;;;;;28.73;17.53;;;4.00;99.90;;;;;;4991287;28;20599;-75
2023/12/06 00:38:15;;;;;;;29.30;17.70;;;4.00;99.90;;;;;;4991096;28;20750;-76
2023/12/06 00:40:41;;;;;;;29.03;16.87;;;4.00;99.90;;;;;;4991103;28;20576;-78
2023/12/06 00:43:06;;;;;;;28.47;16.77;;;3.90;99.90;;;;;;4992122;28;20440;-78
2023/12/06 00:45:33;;;;;;;23.30;15.27;;;4.00;99.90;;;;;;4989609;28;20669;-75
2023/12/06 00:47:58;;;;;;;26.37;16.97;;;4.00;99.90;;;;;;4990869;28;20195;-75
2023/12/06 00:50:24;;;;;;;29.13;16.83;;;4.00;99.90;;;;;;4990584;28;20437;-76
2023/12/06 00:52:50;;;;;;;33.40;18.67;;;4.00;99.90;;;;;;4991689;28;20183;-75
2023/12/06 00:55:15;;;;;;;28.60;17.90;;;4.00;99.90;;;;;;4998909;28;20255;-76
2023/12/06 00:57:41;;;;;;;28.83;17.83;;;4.00;99.90;;;;;;4999267;28;20179;-76
2023/12/06 01:00:08;;;;;;;31.30;18.00;;;3.90;99.90;;;;;;4997224;28;20919;-73
2023/12/06 01:02:34;;;;;;;28.90;17.03;;;3.90;99.90;;;;;;5000773;28;20624;-77
2023/12/06 01:04:59;;;;;;;30.67;17.83;;;3.90;99.90;;;;;;4998805;28;20426;-79
2023/12/06 01:07:25;;;;;;;26.20;15.77;;;3.90;99.90;;;;;;5001088;28;20188;-75
2023/12/06 01:09:51;;;;;;;30.27;17.27;;;4.00;99.90;;;;;;4998593;28;20224;-77
2023/12/06 01:12:17;;;;;;;29.37;17.90;;;3.90;99.90;;;;;;5000571;28;20223;-74
2023/12/06 01:14:43;;;;;;;28.83;17.70;;;3.90;99.90;;;;;;4997384;28;20517;-77
2023/12/06 01:17:09;;;;;;;31.63;18.43;;;3.90;99.90;;;;;;4998737;28;20198;-76
2023/12/06 01:19:34;;;;;;;33.47;18.43;;;3.80;99.90;;;;;;5000387;28;20923;-79
2023/12/06 01:22:00;;;;;;;28.27;17.27;;;3.90;99.90;;;;;;4965147;28;20203;-77
2023/12/06 01:24:26;;;;;;;27.50;17.40;;;3.80;99.90;;;;;;5000669;28;20191;-78
2023/12/06 01:26:51;;;;;;;31.97;17.00;;;3.80;99.90;;;;;;4999967;28;20206;-78
2023/12/06 01:29:17;;;;;;;28.43;16.10;;;3.80;99.90;;;;;;4999787;28;20298;-80
2023/12/06 01:31:42;;;;;;;29.43;17.53;;;3.80;99.90;;;;;;4997106;28;20215;-75
2023/12/06 01:34:08;;;;;;;27.37;17.23;;;3.80;99.90;;;;;;4998687;28;20195;-72
2023/12/06 01:36:37;;;;;;;30.47;16.57;;;3.80;99.90;;;;;;5001021;28;20638;-77
2023/12/06 01:39:03;;;;;;;35.60;18.83;;;3.80;99.90;;;;;;4999531;28;20310;-77
2023/12/06 01:41:29;;;;;;;30.00;17.00;;;3.80;99.90;;;;;;5000248;28;20434;-81
2023/12/06 01:43:54;;;;;;;26.53;16.47;;;3.80;99.90;;;;;;4998175;28;20431;-76
2023/12/06 01:46:20;;;;;;;30.53;17.23;;;3.80;99.90;;;;;;5000835;28;20229;-78
2023/12/06 01:48:47;;;;;;;30.67;18.80;;;3.80;99.90;;;;;;4996489;28;20233;-80
2023/12/06 01:51:16;;;;;;;25.37;15.57;;;3.80;99.90;;;;;;4996351;28;20467;-75
2023/12/06 01:53:42;;;;;;;24.60;15.80;;;3.70;99.90;;;;;;4980846;28;20479;-76
2023/12/06 01:56:09;;;;;;;24.30;15.83;;;3.80;99.90;;;;;;4997037;28;20818;-78
2023/12/06 01:58:37;;;;;;;29.57;17.60;;;3.80;99.90;;;;;;5014220;28;21003;-73
2023/12/06 02:01:04;;;;;;;26.80;15.93;;;3.80;99.90;;;;;;4977582;28;20457;-78
2023/12/06 02:03:34;;;;;;;26.57;16.17;;;3.80;99.90;;;;;;4998440;28;20530;-74
2023/12/06 02:06:05;;;;;;;25.13;16.20;;;3.80;99.90;;;;;;4996976;28;20488;-81
2023/12/06 02:08:35;;;;;;;25.63;15.50;;;3.80;99.90;;;;;;5094921;27;23258;-76
2023/12/06 02:11:01;;;;;;;26.90;16.17;;;3.80;99.90;;;;;;4996665;28;20804;-77
2023/12/06 02:13:28;;;;;;;25.70;16.33;;;3.70;99.90;;;;;;4999409;28;20452;-75
2023/12/06 02:15:54;;;;;;;28.63;16.30;;;3.70;99.90;;;;;;5010816;28;20851;-75
2023/12/06 02:18:21;;;;;;;27.67;16.60;;;3.70;99.90;;;;;;4998392;28;20730;-75
2023/12/06 02:20:47;;;;;;;28.57;17.57;;;3.60;99.90;;;;;;4996467;28;20435;-78
2023/12/06 02:23:15;;;;;;;24.13;15.87;;;3.60;99.90;;;;;;4980983;28;20431;-76
2023/12/06 02:25:42;;;;;;;26.27;15.97;;;3.60;99.90;;;;;;4996525;28;20434;-75
2023/12/06 02:28:08;;;;;;;23.33;16.30;;;3.70;99.90;;;;;;4994652;28;20443;-76
2023/12/06 02:30:33;;;;;;;29.10;17.43;;;3.60;99.90;;;;;;4999039;28;20998;-74
2023/12/06 02:32:59;;;;;;;26.50;16.80;;;3.70;99.90;;;;;;4996290;28;20882;-76
2023/12/06 02:35:47;;;;;;;27.57;16.37;;;3.60;99.90;;;;;;4998331;28;20188;-79
2023/12/06 02:38:16;;;;;;;28.07;16.37;;;3.60;99.90;;;;;;4996914;28;20171;-76
2023/12/06 02:40:43;;;;;;;25.83;15.43;;;3.60;99.90;;;;;;4996422;28;20442;-77
2023/12/06 02:43:09;;;;;;;27.37;17.23;;;3.60;99.90;;;;;;4997160;28;20807;-73
2023/12/06 02:45:35;;;;;;;22.37;14.00;;;3.60;99.90;;;;;;4995276;28;20998;-74
2023/12/06 02:48:03;;;;;;;22.30;14.20;;;3.60;99.90;;;;;;4997434;28;20444;-77
2023/12/06 02:50:29;;;;;;;25.17;14.63;;;3.60;99.90;;;;;;4998710;28;20571;-75
2023/12/06 02:52:55;;;;;;;21.67;12.90;;;3.60;99.90;;;;;;4997233;28;20433;-77
2023/12/06 02:55:20;;;;;;;24.77;14.40;;;3.60;99.90;;;;;;4999134;28;20191;-75
2023/12/06 02:57:46;;;;;;;21.60;13.50;;;3.50;99.90;;;;;;4997221;28;20196;-78
2023/12/06 03:00:12;;;;;;;24.40;14.07;;;3.50;99.90;;;;;;4994686;28;20225;-77
2023/12/06 03:02:37;;;;;;;24.73;14.83;;;3.50;99.90;;;;;;4997799;28;20188;-75
2023/12/06 03:05:03;;;;;;;25.97;16.13;;;3.50;99.90;;;;;;4997834;28;20266;-77
2023/12/06 03:07:29;;;;;;;24.67;13.47;;;3.50;99.90;;;;;;4999057;28;20556;-77
2023/12/06 03:09:55;;;;;;;25.37;14.90;;;3.50;99.90;;;;;;4997301;28;20980;-76
2023/12/06 03:12:21;;;;;;;30.70;16.70;;;3.50;99.90;;;;;;4999555;28;20226;-76
2023/12/06 03:14:46;;;;;;;24.90;15.70;;;3.50;99.90;;;;;;4996892;28;20457;-76
2023/12/06 03:17:12;;;;;;;30.50;16.77;;;3.50;99.90;;;;;;4997201;28;20264;-76
2023/12/06 03:19:38;;;;;;;26.60;15.47;;;3.50;99.90;;;;;;4996773;28;20626;-76
2023/12/06 03:22:03;;;;;;;26.40;16.07;;;3.50;99.90;;;;;;4996133;28;20688;-77
2023/12/06 03:24:29;;;;;;;33.20;16.33;;;3.50;99.90;;;;;;4998815;28;20179;-76
2023/12/06 03:26:55;;;;;;;26.70;16.93;;;3.50;99.90;;;;;;4997624;28;20489;-77
2023/12/06 03:29:20;;;;;;;29.73;18.37;;;3.50;99.90;;;;;;4999593;28;20354;-76
2023/12/06 03:31:46;;;;;;;27.20;16.43;;;3.50;99.90;;;;;;4995232;28;20216;-73
2023/12/06 03:34:12;;;;;;;28.70;17.17;;;3.40;99.90;;;;;;4997380;28;20564;-75
2023/12/06 03:36:37;;;;;;;30.20;16.50;;;3.40;99.90;;;;;;4997841;28;20661;-73
2023/12/06 03:39:03;;;;;;;29.50;16.43;;;3.40;99.90;;;;;;4995145;28;20730;-76
2023/12/06 03:41:29;;;;;;;29.23;17.40;;;3.40;99.90;;;;;;4998884;28;20186;-76
2023/12/06 03:43:54;;;;;;;28.77;17.60;;;3.40;99.90;;;;;;4995888;28;20523;-76
2023/12/06 03:46:20;;;;;;;33.40;17.70;;;3.40;99.90;;;;;;4998656;28;20658;-78
2023/12/06 03:48:45;;;;;;;32.97;17.93;;;3.40;99.90;;;;;;4994008;28;20623;-77
2023/12/06 03:51:11;;;;;;;32.10;17.97;;;3.40;99.90;;;;;;4977693;28;20215;-78
2023/12/06 03:53:38;;;;;;;33.07;18.23;;;3.40;99.90;;;;;;4989165;28;20179;-78
2023/12/06 03:56:04;;;;;;;33.73;19.37;;;3.40;99.90;;;;;;4991250;28;20483;-80
2023/12/06 03:58:30;;;;;;;30.73;18.70;;;3.40;99.90;;;;;;4988461;28;20434;-76
2023/12/06 04:00:56;;;;;;;29.47;18.63;;;3.30;99.90;;;;;;4990152;28;20755;-80
2023/12/06 04:03:22;;;;;;;31.13;18.13;;;3.30;99.90;;;;;;4989463;28;20191;-78
2023/12/06 04:05:47;;;;;;;31.87;18.97;;;3.30;99.90;;;;;;4989415;28;20191;-76
2023/12/06 04:08:13;;;;;;;32.17;19.77;;;3.30;99.90;;;;;;4990719;28;20461;-79
2023/12/06 04:10:39;;;;;;;39.60;21.03;;;3.30;99.90;;;;;;4988950;28;20215;-78
2023/12/06 04:13:05;;;;;;;32.80;20.20;;;3.30;99.90;;;;;;4990145;28;20219;-79
2023/12/06 04:15:31;;;;;;;32.90;19.40;;;3.40;99.90;;;;;;4987832;28;20962;-76
2023/12/06 04:17:57;;;;;;;36.20;21.67;;;3.40;99.90;;;;;;4990096;28;20526;-76
2023/12/06 04:20:25;;;;;;;38.33;21.70;;;3.30;99.90;;;;;;4989534;28;20434;-78
2023/12/06 04:22:51;;;;;;;36.30;21.17;;;3.30;99.90;;;;;;4987708;28;20935;-80
2023/12/06 04:25:17;;;;;;;37.63;22.43;;;3.30;99.90;;;;;;4988599;28;20515;-75
2023/12/06 04:27:43;;;;;;;33.80;20.97;;;3.30;99.90;;;;;;4990114;28;20186;-78
2023/12/06 04:30:10;;;;;;;29.50;19.80;;;3.30;99.90;;;;;;4989919;28;20187;-76
2023/12/06 04:32:36;;;;;;;33.50;20.67;;;3.30;99.90;;;;;;4987840;28;20477;-75
2023/12/06 04:35:02;;;;;;;31.67;20.30;;;3.30;99.90;;;;;;4989712;28;20924;-79
2023/12/06 04:37:28;;;;;;;35.97;21.40;;;3.30;99.90;;;;;;4988804;28;20199;-75
2023/12/06 04:39:53;;;;;;;36.13;20.70;;;3.20;99.90;;;;;;4988645;28;20422;-76
2023/12/06 04:42:19;;;;;;;33.77;22.33;;;3.20;99.90;;;;;;4988569;28;20298;-78
2023/12/06 04:44:45;;;;;;;36.03;22.80;;;3.20;99.90;;;;;;4989047;28;20192;-75
2023/12/06 04:47:11;;;;;;;39.63;23.47;;;3.20;99.90;;;;;;4988305;28;20896;-77
2023/12/06 04:49:36;;;;;;;35.03;22.60;;;3.20;99.90;;;;;;4989094;28;20740;-77
2023/12/06 04:52:03;;;;;;;35.13;21.10;;;3.20;99.90;;;;;;4989821;28;20696;-75
2023/12/06 04:54:29;;;;;;;38.33;23.33;;;3.20;99.90;;;;;;4987776;28;20240;-80
2023/12/06 04:56:54;;;;;;;29.93;20.90;;;3.20;99.90;;;;;;4991847;28;21086;-77
2023/12/06 04:59:20;;;;;;;38.60;22.17;;;3.20;99.90;;;;;;4990840;28;20191;-74
2023/12/06 05:01:46;;;;;;;35.37;21.63;;;3.20;99.90;;;;;;4992711;28;20200;-76
2023/12/06 05:04:11;;;;;;;37.17;22.27;;;3.20;99.90;;;;;;4992857;28;20226;-75
2023/12/06 05:06:37;;;;;;;32.37;21.13;;;3.20;99.90;;;;;;4987840;28;20194;-75
2023/12/06 05:09:04;;;;;;;36.97;22.90;;;3.20;99.90;;;;;;4991313;28;20252;-75
2023/12/06 05:11:30;;;;;;;31.47;22.17;;;3.20;99.90;;;;;;4987088;28;20458;-75
2023/12/06 05:13:56;;;;;;;34.20;22.57;;;3.20;99.90;;;;;;4988770;28;20858;-77
2023/12/06 05:16:22;;;;;;;36.50;22.80;;;3.20;99.90;;;;;;4988541;28;20953;-78
2023/12/06 05:18:48;;;;;;;33.90;22.37;;;3.20;99.90;;;;;;4989038;28;20458;-76
2023/12/06 05:21:13;;;;;;;36.40;22.70;;;3.20;99.90;;;;;;4991052;28;20690;-78
2023/12/06 05:23:39;;;;;;;33.93;22.23;;;3.20;99.90;;;;;;4991554;28;20180;-78
2023/12/06 05:26:05;;;;;;;32.50;22.73;;;3.20;99.90;;;;;;4991452;28;20789;-72
2023/12/06 05:28:30;;;;;;;33.60;23.27;;;3.20;99.90;;;;;;4989094;28;20189;-75
2023/12/06 05:30:56;;;;;;;32.93;21.47;;;3.20;99.90;;;;;;4992349;28;20276;-77
2023/12/06 05:33:22;;;;;;;31.20;21.67;;;3.20;99.90;;;;;;4990596;28;20686;-75
2023/12/06 05:35:47;;;;;;;32.70;21.07;;;3.30;99.90;;;;;;4991749;28;20423;-76
2023/12/06 05:38:13;;;;;;;35.57;22.13;;;3.20;99.90;;;;;;4990447;28;20229;-78
2023/12/06 05:40:39;;;;;;;35.20;22.80;;;3.20;99.90;;;;;;4972740;28;20188;-77
2023/12/06 05:43:05;;;;;;;33.63;22.33;;;3.20;99.90;;;;;;4992360;28;20226;-79
2023/12/06 05:45:31;;;;;;;31.20;20.53;;;3.20;99.90;;;;;;4990022;28;20201;-76
2023/12/06 05:47:56;;;;;;;33.50;21.70;;;3.30;99.90;;;;;;4991140;28;20191;-74
2023/12/06 05:50:22;;;;;;;37.90;23.37;;;3.30;99.90;;;;;;4991583;28;20432;-76
2023/12/06 05:52:49;;;;;;;39.37;22.70;;;3.30;99.90;;;;;;4991914;28;20421;-75
2023/12/06 05:55:16;;;;;;;34.23;21.10;;;3.30;99.90;;;;;;4991477;28;20245;-76
2023/12/06 05:57:42;;;;;;;36.90;23.60;;;3.30;99.90;;;;;;4990704;28;20429;-77
2023/12/06 06:00:12;;;;;;;36.40;22.00;;;3.30;99.90;;;;;;4989386;28;20426;-78
2023/12/06 06:02:43;;;;;;;35.47;22.33;;;3.30;99.90;;;;;;4989767;28;20196;-75
2023/12/06 06:05:09;;;;;;;33.30;21.97;;;3.30;99.90;;;;;;4991507;28;20454;-74
2023/12/06 06:07:35;;;;;;;37.67;22.90;;;3.30;99.90;;;;;;4970715;28;20443;-74
2023/12/06 06:10:01;;;;;;;33.40;21.70;;;3.30;99.90;;;;;;4989409;28;20802;-73
2023/12/06 06:12:26;;;;;;;38.70;24.20;;;3.30;99.90;;;;;;4991572;28;20492;-77
2023/12/06 06:14:52;;;;;;;38.73;24.23;;;3.30;99.90;;;;;;4993204;28;20272;-74
2023/12/06 06:17:18;;;;;;;42.33;23.20;;;3.30;99.90;;;;;;4992233;28;20206;-77
2023/12/06 06:19:44;;;;;;;40.33;22.93;;;3.30;99.90;;;;;;4993267;28;20318;-77
2023/12/06 06:22:09;;;;;;;34.83;21.63;;;3.40;99.90;;;;;;4993442;28;20187;-77
2023/12/06 06:24:35;;;;;;;39.77;23.77;;;3.40;99.90;;;;;;4988696;28;20244;-76
2023/12/06 06:27:02;;;;;;;36.10;23.87;;;3.40;99.90;;;;;;4992575;28;20214;-77
2023/12/06 06:29:28;;;;;;;37.43;22.70;;;3.40;99.90;;;;;;4991364;28;20184;-78
2023/12/06 06:31:53;;;;;;;39.50;22.37;;;3.40;99.90;;;;;;4992671;28;20550;-75
2023/12/06 06:34:20;;;;;;;39.90;23.83;;;3.40;99.90;;;;;;4992055;28;20445;-77
2023/12/06 06:36:45;;;;;;;35.30;22.73;;;3.50;99.90;;;;;;4975571;28;20204;-77
2023/12/06 06:39:14;;;;;;;37.83;23.40;;;3.50;99.90;;;;;;4989876;28;20456;-79
2023/12/06 06:41:40;;;;;;;37.83;22.13;;;3.40;99.90;;;;;;4990358;28;20207;-78
2023/12/06 06:44:06;;;;;;;38.33;23.63;;;3.50;99.90;;;;;;4991897;28;20434;-81
2023/12/06 06:46:32;;;;;;;37.63;23.67;;;3.40;99.90;;;;;;4990772;28;20510;-74
2023/12/06 06:48:58;;;;;;;38.00;23.40;;;3.50;99.90;;;;;;4991796;28;20439;-80
2023/12/06 06:51:35;;;;;;;37.47;23.83;;;3.50;99.90;;;;;;4990087;28;20473;-76
2023/12/06 06:54:01;;;;;;;37.47;23.17;;;3.50;99.90;;;;;;4991559;28;20200;-77
2023/12/06 06:56:27;;;;;;;36.03;22.40;;;3.60;99.90;;;;;;4974732;28;20466;-78
2023/12/06 06:58:53;;;;;;;36.03;21.93;;;3.60;99.90;;;;;;4992519;28;20496;-78
2023/12/06 07:01:18;;;;;;;36.23;21.33;;;3.60;99.90;;;;;;4989518;28;20198;-77
2023/12/06 07:03:44;;;;;;;32.17;21.17;;;3.60;99.90;;;;;;4991591;28;20192;-72
2023/12/06 07:06:10;;;;;;;33.50;21.47;;;3.60;99.90;;;;;;4991953;28;20668;-73
2023/12/06 07:08:36;;;;;;;32.27;20.67;;;3.60;99.90;;;;;;4989166;28;20269;-74
2023/12/06 07:11:04;;;;;;;33.70;21.10;;;3.70;99.90;;;;;;4989361;28;20222;-76
2023/12/06 07:13:30;;;;;;;32.13;20.97;;;3.70;99.90;;;;;;4988079;28;20587;-76
2023/12/06 07:15:56;;;;;;;36.60;22.40;;;3.70;99.90;;;;;;4986906;28;21019;-71
2023/12/06 07:18:21;;;;;;;28.90;19.83;;;3.70;99.90;;;;;;4985678;28;20259;-72
2023/12/06 07:20:48;;;;;;;32.70;23.30;;;3.70;99.90;;;;;;4990367;28;20211;-71
2023/12/06 07:23:14;;;;;;;32.13;21.30;;;3.70;99.90;;;;;;4990055;28;20671;-71
2023/12/06 07:25:40;;;;;;;30.53;21.00;;;3.70;99.90;;;;;;4988220;28;20427;-71
2023/12/06 07:28:06;;;;;;;32.43;19.80;;;3.70;99.90;;;;;;4991394;28;20279;-71
2023/12/06 07:30:31;;;;;;;32.60;20.40;;;3.70;99.90;;;;;;4988628;28;20948;-71
2023/12/06 07:32:57;;;;;;;28.60;20.43;;;3.70;99.90;;;;;;4989053;28;20549;-71
2023/12/06 07:35:23;;;;;;;30.73;20.77;;;3.80;99.90;;;;;;4988620;28;20187;-71
2023/12/06 07:37:48;;;;;;;30.97;20.20;;;3.80;99.90;;;;;;4988645;28;20199;-73
2023/12/06 07:40:15;;;;;;;28.40;19.60;;;3.80;99.90;;;;;;4974473;28;20191;-72
2023/12/06 07:42:41;;;;;;;31.00;19.80;;;3.70;99.90;;;;;;4988897;28;20438;-72
2023/12/06 07:45:11;;;;;;;29.97;19.20;;;3.70;99.90;;;;;;4990007;28;20796;-73
2023/12/06 07:47:39;;;;;;;26.63;17.13;;;3.70;99.90;;;;;;4984257;28;20448;-72
2023/12/06 07:50:06;;;;;;;25.60;16.93;;;3.70;99.90;;;;;;4988566;28;20453;-72
2023/12/06 07:52:33;;;;;;;29.37;17.80;;;3.80;99.90;;;;;;4986720;28;21707;-72
2023/12/06 07:54:59;;;;;;;26.57;17.77;;;3.80;99.90;;;;;;4989083;28;20530;-72
2023/12/06 07:57:28;;;;;;;28.13;18.80;;;3.80;99.90;;;;;;4988660;28;20987;-72
2023/12/06 07:59:58;;;;;;;31.70;20.27;;;3.80;99.90;;;;;;4989086;28;20446;-72
2023/12/06 08:02:25;;;;;;;30.37;20.13;;;3.80;99.90;;;;;;4988563;28;20429;-72
2023/12/06 08:04:50;;;;;;;32.07;18.10;;;3.80;99.90;;;;;;4989876;28;20526;-72
2023/12/06 08:07:16;;;;;;;34.63;20.47;;;3.80;99.90;;;;;;4972768;28;20573;-73
2023/12/06 08:09:42;;;;;;;31.93;21.80;;;3.90;99.90;;;;;;4990011;28;20179;-71
2023/12/06 08:12:08;;;;;;;31.97;20.17;;;3.90;99.90;;;;;;5004433;28;20812;-72
2023/12/06 08:14:34;;;;;;;38.80;20.10;;;3.80;99.90;;;;;;4988670;28;20181;-72
2023/12/06 08:17:00;;;;;;;36.53;21.07;;;3.90;99.90;;;;;;4989683;28;20528;-73
2023/12/06 08:19:26;;;;;;;32.17;20.33;;;3.90;99.90;;;;;;4988837;28;20475;-72
2023/12/06 08:21:51;;;;;;;31.13;20.03;;;3.90;99.90;;;;;;4989050;28;20192;-72
2023/12/06 08:24:17;;;;;;;30.20;20.23;;;3.90;99.90;;;;;;4988106;28;20246;-72
2023/12/06 08:26:43;;;;;;;30.10;20.33;;;3.90;99.90;;;;;;4991528;28;20187;-73
2023/12/06 08:29:09;;;;;;;32.00;19.57;;;3.90;99.90;;;;;;4989394;28;20278;-73
2023/12/06 08:31:38;;;;;;;32.27;19.77;;;3.90;99.90;;;;;;4990468;28;20518;-72
2023/12/06 08:34:03;;;;;;;29.50;20.07;;;3.90;99.90;;;;;;4992597;28;20481;-73
2023/12/06 08:36:29;;;;;;;31.53;19.87;;;3.90;99.90;;;;;;4991917;28;20463;-70
2023/12/06 08:38:55;;;;;;;26.43;17.80;;;4.00;99.90;;;;;;4993016;28;20248;-73
2023/12/06 08:41:22;;;;;;;25.87;18.53;;;4.00;99.90;;;;;;4993890;28;20180;-73
2023/12/06 08:43:48;;;;;;;26.20;18.37;;;4.00;99.90;;;;;;4996824;28;20278;-72
2023/12/06 08:46:15;;;;;;;29.10;18.70;;;4.00;99.90;;;;;;4996407;28;21020;-73
2023/12/06 08:48:41;;;;;;;29.20;17.43;;;4.00;99.90;;;;;;4995316;28;20183;-73
2023/12/06 08:51:08;;;;;;;30.60;19.37;;;4.00;99.90;;;;;;4996327;28;20470;-72
2023/12/06 08:53:34;;;;;;;29.90;20.13;;;4.10;99.90;;;;;;4997883;28;20184;-73
2023/12/06 08:56:00;;;;;;;31.47;22.00;;;4.00;99.90;;;;;;4996558;28;20840;-73
2023/12/06 08:58:25;;;;;;;29.80;18.70;;;4.10;99.90;;;;;;4998331;28;20435;-72
2023/12/06 09:00:51;;;;;;;30.80;20.40;;;4.10;99.90;;;;;;4997590;28;20187;-72
2023/12/06 09:03:17;;;;;;;31.17;19.90;;;4.10;99.90;;;;;;4997399;28;20206;-72
2023/12/06 09:05:42;;;;;;;26.30;18.30;;;4.10;99.90;;;;;;4997789;28;20191;-72
2023/12/06 09:08:08;;;;;;;29.13;20.13;;;4.10;99.90;;;;;;4996016;28;20198;-72
2023/12/06 09:10:34;;;;;;;30.43;20.13;;;4.20;99.90;;;;;;4998796;28;20219;-72
2023/12/06 09:12:59;;;;;;;30.73;20.50;;;4.20;99.90;;;;;;4997176;28;20241;-72
2023/12/06 09:15:27;;;;;;;30.50;19.13;;;4.20;99.90;;;;;;4998647;28;20187;-72
2023/12/06 09:17:52;;;;;;;30.23;20.60;;;4.20;99.90;;;;;;4997698;28;20548;-72
2023/12/06 09:20:18;;;;;;;28.03;19.43;;;4.20;99.90;;;;;;4997144;28;20433;-72
2023/12/06 09:22:44;;;;;;;27.60;20.07;;;4.20;99.90;;;;;;4997485;28;20701;-72
2023/12/06 09:25:09;;;;;;;30.17;20.60;;;4.20;99.90;;;;;;4996311;28;21008;-72
2023/12/06 09:27:35;;;;;;;29.73;20.80;;;4.20;99.90;;;;;;4999367;28;20188;-73
2023/12/06 09:30:01;;;;;;;33.37;20.60;;;4.20;99.90;;;;;;4997119;28;20672;-72
2023/12/06 09:32:26;;;;;;;28.30;19.67;;;4.30;99.90;;;;;;4998180;28;20219;-72
2023/12/06 09:34:52;;;;;;;24.70;18.80;;;4.30;99.90;;;;;;4980088;28;20252;-72
2023/12/06 09:37:18;;;;;;;26.07;18.23;;;4.30;99.90;;;;;;4997915;28;20273;-72
2023/12/06 09:39:44;;;;;;;29.13;19.83;;;4.30;99.90;;;;;;4996878;28;20192;-73
2023/12/06 09:42:10;;;;;;;28.87;20.40;;;4.30;99.90;;;;;;4994206;28;20771;-72
2023/12/06 09:44:42;;;;;;;27.60;19.53;;;4.30;99.90;;;;;;4998912;28;20173;-73
2023/12/06 09:47:07;;;;;;;27.80;19.40;;;4.30;99.90;;;;;;4996298;28;20430;-73
2023/12/06 09:49:33;;;;;;;29.70;21.57;;;4.30;99.90;;;;;;4999850;28;20431;-72
2023/12/06 09:52:25;;;;;;;26.50;19.30;;;4.30;99.90;;;;;;4996317;28;20662;-72
2023/12/06 09:54:51;;;;;;;29.20;19.60;;;4.30;99.90;;;;;;4999048;28;20502;-72
2023/12/06 09:57:17;;;;;;;31.43;19.00;;;4.30;99.90;;;;;;4997766;28;20833;-72
2023/12/06 09:59:43;;;;;;;25.10;17.73;;;4.40;99.90;;;;;;4996514;28;20439;-71
2023/12/06 10:02:09;;;;;;;25.83;18.63;;;4.40;99.90;;;;;;4996134;28;21219;-72
2023/12/06 10:04:35;;;;;;;24.37;18.53;;;4.40;99.90;;;;;;4999250;28;20429;-72
2023/12/06 10:07:02;;;;;;;25.30;17.50;;;4.40;99.90;;;;;;4997628;28;20290;-72
2023/12/06 10:09:28;;;;;;;25.70;17.87;;;4.40;99.90;;;;;;4999258;28;21023;-73
2023/12/06 10:12:10;;;;;;;23.90;17.73;;;4.40;99.90;;;;;;4996566;28;20528;-72
2023/12/06 10:14:36;;;;;;;24.60;18.27;;;4.40;99.90;;;;;;4998684;28;20212;-73
2023/12/06 10:17:02;;;;;;;28.30;18.73;;;4.50;99.90;;;;;;4996001;28;20430;-73
2023/12/06 10:19:31;;;;;;;22.67;17.23;;;4.50;99.90;;;;;;4999322;28;20435;-73
2023/12/06 10:21:58;;;;;;;22.00;17.10;;;4.50;99.90;;;;;;5093133;27;20841;-72
2023/12/06 10:24:24;;;;;;;25.80;16.73;;;4.50;99.90;;;;;;4998399;28;20435;-73
2023/12/06 10:27:01;;;;;;;19.63;16.20;;;4.50;99.90;;;;;;4999511;28;20441;-72
2023/12/06 10:29:28;;;;;;;22.07;16.87;;;4.50;99.90;;;;;;4999641;28;20196;-73
2023/12/06 10:31:53;;;;;;;17.90;15.10;;;4.50;99.90;;;;;;4997457;28;20586;-73
2023/12/06 10:34:19;;;;;;;19.80;15.63;;;4.50;99.90;;;;;;4998366;28;20517;-73
2023/12/06 10:36:46;;;;;;;16.50;14.47;;;4.50;99.90;;;;;;4997784;28;20179;-72
2023/12/06 10:39:15;;;;;;;18.07;14.63;;;4.50;99.90;;;;;;4995660;28;20435;-73
2023/12/06 10:41:43;;;;;;;19.70;16.27;;;4.60;99.90;;;;;;4996547;28;20471;-73
2023/12/06 10:44:10;;;;;;;18.17;15.10;;;4.50;99.90;;;;;;4995657;28;20426;-72
2023/12/06 10:46:41;;;;;;;18.93;13.97;;;4.60;99.90;;;;;;5000065;28;20452;-72
2023/12/06 10:49:08;;;;;;;18.23;15.10;;;4.60;99.90;;;;;;4996270;28;20444;-72
2023/12/06 10:51:35;;;;;;;17.73;14.30;;;4.60;99.90;;;;;;4999245;28;20513;-72
2023/12/06 10:54:01;;;;;;;21.13;15.33;;;4.60;99.90;;;;;;4996468;28;20434;-72
2023/12/06 10:56:28;;;;;;;17.00;14.60;;;4.60;99.90;;;;;;4996823;28;20539;-72
2023/12/06 10:58:59;;;;;;;16.10;13.90;;;4.60;99.90;;;;;;4996330;28;20501;-72
2023/12/06 11:01:25;;;;;;;17.13;13.73;;;4.60;99.90;;;;;;4996799;28;20435;-72
2023/12/06 11:03:52;;;;;;;16.80;13.77;;;4.60;99.90;;;;;;4990338;28;21156;-72
2023/12/06 11:06:26;;;;;;;18.03;14.37;;;4.60;99.90;;;;;;4988574;28;20454;-72
2023/12/06 11:09:27;;;;;;;17.80;14.30;;;4.60;99.90;;;;;;4990285;28;20447;-73
2023/12/06 11:12:21;;;;;;;15.67;12.63;;;4.70;99.90;;;;;;4989840;28;20474;-73
2023/12/06 11:15:10;;;;;;;16.43;13.60;;;4.70;99.90;;;;;;4989914;28;20462;-73
2023/12/06 11:17:51;;;;;;;17.07;13.80;;;4.70;99.90;;;;;;4990402;28;20434;-73
2023/12/06 11:20:17;;;;;;;17.80;13.97;;;4.70;99.90;;;;;;4988007;28;20801;-72
2023/12/06 11:22:43;;;;;;;16.90;14.40;;;4.70;99.90;;;;;;4988902;28;20439;-72
2023/12/06 11:25:11;;;;;;;19.67;15.13;;;4.70;99.90;;;;;;4989625;28;20243;-72
2023/12/06 11:27:41;;;;;;;20.20;14.70;;;4.70;99.90;;;;;;4987675;28;20275;-72
2023/12/06 11:30:16;;;;;;;22.80;15.87;;;4.70;99.90;;;;;;5004194;28;20483;-72
2023/12/06 11:32:43;;;;;;;20.80;15.50;;;4.70;99.90;;;;;;5089844;27;20485;-72
2023/12/06 11:35:09;;;;;;;22.53;17.63;;;4.70;99.90;;;;;;4989492;28;20514;-72
2023/12/06 11:37:35;;;;;;;21.23;16.07;;;4.80;99.90;;;;;;4989767;28;20438;-72
2023/12/06 11:40:20;;;;;;;22.00;18.23;;;4.80;99.90;;;;;;4990051;28;20431;-73
2023/12/06 11:42:56;;;;;;;26.37;17.73;;;4.80;99.90;;;;;;4990348;28;20787;-73
2023/12/06 11:45:29;;;;;;;24.43;18.70;;;4.80;99.90;;;;;;4990856;28;20501;-72
2023/12/06 11:47:58;;;;;;;27.10;18.40;;;4.80;99.90;;;;;;4990401;28;20431;-73
2023/12/06 11:50:23;;;;;;;26.40;19.50;;;4.80;99.90;;;;;;4992080;28;20553;-72
2023/12/06 11:52:50;;;;;;;26.53;19.20;;;4.90;99.90;;;;;;4991452;28;20582;-72
2023/12/06 11:55:18;;;;;;;25.87;19.13;;;4.90;99.90;;;;;;4990754;28;20653;-72
2023/12/06 11:58:06;;;;;;;29.63;20.53;;;4.90;99.90;;;;;;4991844;28;20977;-72
2023/12/06 12:00:34;;;;;;;28.57;19.30;;;4.90;99.90;;;;;;4991548;28;20790;-72
2023/12/06 12:03:02;;;;;;;33.23;20.57;;;4.90;99.90;;;;;;4990162;28;20466;-72
2023/12/06 12:05:29;;;;;;;33.63;21.97;;;4.90;99.90;;;;;;4991165;28;20429;-72
2023/12/06 12:07:55;;;;;;;33.00;22.50;;;4.90;99.90;;;;;;4991592;28;20419;-73
2023/12/06 12:10:21;;;;;;;34.53;21.40;;;5.00;99.90;;;;;;4991259;28;20426;-72
2023/12/06 12:12:50;;;;;;;34.43;21.00;;;5.00;99.90;;;;;;4990331;28;20810;-73
2023/12/06 12:15:16;;;;;;;33.67;23.30;;;5.00;99.90;;;;;;4990622;28;20194;-73
2023/12/06 12:17:44;;;;;;;35.10;22.97;;;5.00;99.90;;;;;;4991391;28;20470;-72
2023/12/06 12:20:12;;;;;;;28.60;21.33;;;5.00;99.90;;;;;;4990641;28;21346;-72
2023/12/06 12:22:49;;;;;;;30.20;20.37;;;5.00;99.90;;;;;;4991351;28;20435;-72
2023/12/06 12:25:15;;;;;;;29.90;20.70;;;5.00;99.90;;;;;;4991235;28;20437;-72
2023/12/06 12:27:46;;;;;;;33.13;22.57;;;5.00;99.90;;;;;;4991480;28;20433;-72
2023/12/06 12:30:15;;;;;;;34.87;22.07;;;5.10;99.90;;;;;;4990194;28;20482;-73
2023/12/06 12:32:48;;;;;;;27.63;20.70;;;5.10;99.90;;;;;;4993605;28;21046;-72
2023/12/06 12:35:15;;;;;;;30.63;21.57;;;5.00;99.90;;;;;;4991373;28;20426;-72